sensor_id;sensor_type;location;lat;lon;timestamp;P1;durP1;ratioP1;P2;durP2;ratioP2
43771;SDS011;59066;54.782;32.024;2023-05-18T00:02:09;8.82;;;5.43;;
43771;SDS011;59066;54.782;32.024;2023-05-18T00:04:41;9.15;;;5.57;;
43771;SDS011;59066;54.782;32.024;2023-05-18T00:07:10;7.70;;;4.78;;
43771;SDS011;59066;54.782;32.024;2023-05-18T00:09:39;11.10;;;4.95;;
43771;SDS011;59066;54.782;32.024;2023-05-18T00:12:07;11.02;;;5.40;;
43771;SDS011;59066;54.782;32.024;2023-05-18T00:14:36;11.95;;;5.13;;
43771;SDS011;59066;54.782;32.024;2023-05-18T00:17:03;10.10;;;4.63;;
43771;SDS011;59066;54.782;32.024;2023-05-18T00:19:31;8.02;;;4.57;;
43771;SDS011;59066;54.782;32.024;2023-05-18T00:21:59;9.93;;;5.03;;
43771;SDS011;59066;54.782;32.024;2023-05-18T00:24:28;8.18;;;4.85;;
43771;SDS011;59066;54.782;32.024;2023-05-18T00:26:55;8.77;;;4.32;;
43771;SDS011;59066;54.782;32.024;2023-05-18T00:29:23;7.13;;;5.03;;
43771;SDS011;59066;54.782;32.024;2023-05-18T00:31:50;7.50;;;4.20;;
43771;SDS011;59066;54.782;32.024;2023-05-18T00:34:18;8.43;;;4.40;;
43771;SDS011;59066;54.782;32.024;2023-05-18T00:36:45;7.22;;;4.80;;
43771;SDS011;59066;54.782;32.024;2023-05-18T00:39:13;10.07;;;4.40;;
43771;SDS011;59066;54.782;32.024;2023-05-18T00:41:41;8.10;;;4.32;;
43771;SDS011;59066;54.782;32.024;2023-05-18T00:44:08;12.02;;;5.00;;
43771;SDS011;59066;54.782;32.024;2023-05-18T00:46:36;7.55;;;4.65;;
43771;SDS011;59066;54.782;32.024;2023-05-18T00:49:03;9.57;;;5.28;;
43771;SDS011;59066;54.782;32.024;2023-05-18T00:51:32;11.35;;;5.00;;
43771;SDS011;59066;54.782;32.024;2023-05-18T00:54:01;5.47;;;4.22;;
43771;SDS011;59066;54.782;32.024;2023-05-18T00:56:29;9.93;;;4.40;;
43771;SDS011;59066;54.782;32.024;2023-05-18T00:59:00;7.60;;;4.38;;
43771;SDS011;59066;54.782;32.024;2023-05-18T01:01:30;7.03;;;4.43;;
43771;SDS011;59066;54.782;32.024;2023-05-18T01:04:02;7.95;;;5.05;;
43771;SDS011;59066;54.782;32.024;2023-05-18T01:06:30;8.20;;;4.75;;
43771;SDS011;59066;54.782;32.024;2023-05-18T01:08:59;10.25;;;4.43;;
43771;SDS011;59066;54.782;32.024;2023-05-18T01:11:37;8.63;;;4.40;;
43771;SDS011;59066;54.782;32.024;2023-05-18T01:14:18;8.13;;;4.28;;
43771;SDS011;59066;54.782;32.024;2023-05-18T01:16:55;12.00;;;4.80;;
43771;SDS011;59066;54.782;32.024;2023-05-18T01:19:42;11.95;;;5.07;;
43771;SDS011;59066;54.782;32.024;2023-05-18T01:28:24;8.32;;;4.50;;
43771;SDS011;59066;54.782;32.024;2023-05-18T01:30:55;12.02;;;6.10;;
43771;SDS011;59066;54.782;32.024;2023-05-18T01:33:24;9.52;;;5.28;;
43771;SDS011;59066;54.782;32.024;2023-05-18T01:35:52;7.60;;;4.93;;
43771;SDS011;59066;54.782;32.024;2023-05-18T01:38:23;10.80;;;4.88;;
43771;SDS011;59066;54.782;32.024;2023-05-18T01:43:36;8.70;;;5.25;;
43771;SDS011;59066;54.782;32.024;2023-05-18T01:48:39;9.48;;;5.38;;
43771;SDS011;59066;54.782;32.024;2023-05-18T01:51:10;9.35;;;5.25;;
43771;SDS011;59066;54.782;32.024;2023-05-18T01:53:45;7.03;;;5.15;;
43771;SDS011;59066;54.782;32.024;2023-05-18T01:56:20;9.38;;;5.18;;
43771;SDS011;59066;54.782;32.024;2023-05-18T01:58:48;7.70;;;5.70;;
43771;SDS011;59066;54.782;32.024;2023-05-18T02:01:17;7.93;;;4.90;;
43771;SDS011;59066;54.782;32.024;2023-05-18T02:03:46;8.88;;;5.65;;
43771;SDS011;59066;54.782;32.024;2023-05-18T02:06:13;8.95;;;4.78;;
43771;SDS011;59066;54.782;32.024;2023-05-18T02:08:41;10.20;;;5.25;;
43771;SDS011;59066;54.782;32.024;2023-05-18T02:11:09;7.47;;;5.22;;
43771;SDS011;59066;54.782;32.024;2023-05-18T02:13:38;9.98;;;5.45;;
43771;SDS011;59066;54.782;32.024;2023-05-18T02:16:06;8.23;;;4.85;;
43771;SDS011;59066;54.782;32.024;2023-05-18T02:18:34;9.60;;;5.57;;
43771;SDS011;59066;54.782;32.024;2023-05-18T02:21:02;13.77;;;4.65;;
43771;SDS011;59066;54.782;32.024;2023-05-18T02:23:30;8.15;;;5.65;;
43771;SDS011;59066;54.782;32.024;2023-05-18T02:25:58;9.25;;;5.82;;
43771;SDS011;59066;54.782;32.024;2023-05-18T02:28:26;9.80;;;5.43;;
43771;SDS011;59066;54.782;32.024;2023-05-18T02:30:54;12.65;;;5.18;;
43771;SDS011;59066;54.782;32.024;2023-05-18T02:33:30;12.70;;;5.55;;
43771;SDS011;59066;54.782;32.024;2023-05-18T02:36:02;9.32;;;4.60;;
43771;SDS011;59066;54.782;32.024;2023-05-18T02:38:30;11.02;;;5.57;;
43771;SDS011;59066;54.782;32.024;2023-05-18T02:40:57;7.07;;;5.53;;
43771;SDS011;59066;54.782;32.024;2023-05-18T02:43:25;8.88;;;5.68;;
43771;SDS011;59066;54.782;32.024;2023-05-18T02:45:52;14.95;;;6.00;;
43771;SDS011;59066;54.782;32.024;2023-05-18T02:48:20;13.57;;;5.28;;
43771;SDS011;59066;54.782;32.024;2023-05-18T02:50:48;8.63;;;5.47;;
43771;SDS011;59066;54.782;32.024;2023-05-18T02:53:16;6.90;;;4.30;;
43771;SDS011;59066;54.782;32.024;2023-05-18T02:55:44;9.73;;;5.53;;
43771;SDS011;59066;54.782;32.024;2023-05-18T02:58:16;10.70;;;5.70;;
43771;SDS011;59066;54.782;32.024;2023-05-18T03:00:57;10.57;;;5.38;;
43771;SDS011;59066;54.782;32.024;2023-05-18T03:03:32;8.55;;;5.13;;
43771;SDS011;59066;54.782;32.024;2023-05-18T03:06:03;8.80;;;4.88;;
43771;SDS011;59066;54.782;32.024;2023-05-18T03:08:32;10.30;;;4.93;;
43771;SDS011;59066;54.782;32.024;2023-05-18T03:10:59;11.98;;;6.18;;
43771;SDS011;59066;54.782;32.024;2023-05-18T03:13:28;7.80;;;5.43;;
43771;SDS011;59066;54.782;32.024;2023-05-18T03:15:55;12.02;;;6.30;;
43771;SDS011;59066;54.782;32.024;2023-05-18T03:18:23;14.05;;;5.65;;
43771;SDS011;59066;54.782;32.024;2023-05-18T03:20:52;13.63;;;6.00;;
43771;SDS011;59066;54.782;32.024;2023-05-18T03:23:20;13.73;;;6.35;;
43771;SDS011;59066;54.782;32.024;2023-05-18T03:25:48;14.05;;;7.13;;
43771;SDS011;59066;54.782;32.024;2023-05-18T03:28:24;11.00;;;5.40;;
43771;SDS011;59066;54.782;32.024;2023-05-18T03:30:52;10.32;;;6.00;;
43771;SDS011;59066;54.782;32.024;2023-05-18T03:33:20;9.18;;;6.78;;
43771;SDS011;59066;54.782;32.024;2023-05-18T03:35:48;11.75;;;7.35;;
43771;SDS011;59066;54.782;32.024;2023-05-18T03:38:16;14.98;;;7.32;;
43771;SDS011;59066;54.782;32.024;2023-05-18T03:40:48;15.40;;;7.50;;
43771;SDS011;59066;54.782;32.024;2023-05-18T03:43:16;15.00;;;9.07;;
43771;SDS011;59066;54.782;32.024;2023-05-18T03:45:45;12.73;;;7.90;;
43771;SDS011;59066;54.782;32.024;2023-05-18T03:48:12;20.50;;;8.13;;
43771;SDS011;59066;54.782;32.024;2023-05-18T03:50:40;11.45;;;6.90;;
43771;SDS011;59066;54.782;32.024;2023-05-18T03:53:08;13.15;;;7.95;;
43771;SDS011;59066;54.782;32.024;2023-05-18T03:55:35;13.95;;;7.20;;
43771;SDS011;59066;54.782;32.024;2023-05-18T03:58:03;9.20;;;6.53;;
43771;SDS011;59066;54.782;32.024;2023-05-18T04:00:31;12.35;;;7.20;;
43771;SDS011;59066;54.782;32.024;2023-05-18T04:02:58;10.57;;;8.30;;
43771;SDS011;59066;54.782;32.024;2023-05-18T04:05:29;16.73;;;9.75;;
43771;SDS011;59066;54.782;32.024;2023-05-18T04:07:57;11.13;;;7.38;;
43771;SDS011;59066;54.782;32.024;2023-05-18T04:10:24;11.32;;;7.65;;
43771;SDS011;59066;54.782;32.024;2023-05-18T04:12:52;12.05;;;8.50;;
43771;SDS011;59066;54.782;32.024;2023-05-18T04:15:20;13.95;;;8.75;;
43771;SDS011;59066;54.782;32.024;2023-05-18T04:17:49;15.85;;;10.63;;
43771;SDS011;59066;54.782;32.024;2023-05-18T04:20:17;13.50;;;10.07;;
43771;SDS011;59066;54.782;32.024;2023-05-18T04:22:46;14.60;;;9.98;;
43771;SDS011;59066;54.782;32.024;2023-05-18T04:25:15;10.55;;;8.13;;
43771;SDS011;59066;54.782;32.024;2023-05-18T04:27:43;13.00;;;10.57;;
43771;SDS011;59066;54.782;32.024;2023-05-18T04:30:11;16.17;;;9.20;;
43771;SDS011;59066;54.782;32.024;2023-05-18T04:32:41;11.52;;;8.93;;
43771;SDS011;59066;54.782;32.024;2023-05-18T04:35:09;14.82;;;9.50;;
43771;SDS011;59066;54.782;32.024;2023-05-18T04:37:38;13.05;;;9.10;;
43771;SDS011;59066;54.782;32.024;2023-05-18T04:40:10;12.13;;;9.45;;
43771;SDS011;59066;54.782;32.024;2023-05-18T04:42:44;14.73;;;10.68;;
43771;SDS011;59066;54.782;32.024;2023-05-18T04:45:24;18.67;;;10.95;;
43771;SDS011;59066;54.782;32.024;2023-05-18T04:47:53;13.18;;;9.93;;
43771;SDS011;59066;54.782;32.024;2023-05-18T04:50:21;17.33;;;10.60;;
43771;SDS011;59066;54.782;32.024;2023-05-18T04:52:52;14.40;;;10.05;;
43771;SDS011;59066;54.782;32.024;2023-05-18T04:55:25;16.88;;;11.65;;
43771;SDS011;59066;54.782;32.024;2023-05-18T04:57:57;16.80;;;12.15;;
43771;SDS011;59066;54.782;32.024;2023-05-18T05:00:26;16.15;;;11.32;;
43771;SDS011;59066;54.782;32.024;2023-05-18T05:02:56;15.73;;;10.95;;
43771;SDS011;59066;54.782;32.024;2023-05-18T05:05:25;15.77;;;10.73;;
43771;SDS011;59066;54.782;32.024;2023-05-18T05:07:53;13.55;;;11.07;;
43771;SDS011;59066;54.782;32.024;2023-05-18T05:10:22;12.45;;;10.30;;
43771;SDS011;59066;54.782;32.024;2023-05-18T05:12:50;16.17;;;10.32;;
43771;SDS011;59066;54.782;32.024;2023-05-18T05:15:18;14.68;;;10.73;;
43771;SDS011;59066;54.782;32.024;2023-05-18T05:17:48;14.00;;;9.93;;
43771;SDS011;59066;54.782;32.024;2023-05-18T05:20:16;21.20;;;9.82;;
43771;SDS011;59066;54.782;32.024;2023-05-18T05:22:44;18.60;;;10.93;;
43771;SDS011;59066;54.782;32.024;2023-05-18T05:25:15;13.07;;;9.50;;
43771;SDS011;59066;54.782;32.024;2023-05-18T05:27:43;12.50;;;9.50;;
43771;SDS011;59066;54.782;32.024;2023-05-18T05:30:11;15.27;;;9.85;;
43771;SDS011;59066;54.782;32.024;2023-05-18T05:32:41;15.15;;;10.43;;
43771;SDS011;59066;54.782;32.024;2023-05-18T05:35:09;16.95;;;11.15;;
43771;SDS011;59066;54.782;32.024;2023-05-18T05:37:36;10.38;;;8.20;;
43771;SDS011;59066;54.782;32.024;2023-05-18T05:40:04;13.75;;;8.00;;
43771;SDS011;59066;54.782;32.024;2023-05-18T05:42:38;18.27;;;8.88;;
43771;SDS011;59066;54.782;32.024;2023-05-18T05:45:07;13.20;;;8.45;;
43771;SDS011;59066;54.782;32.024;2023-05-18T05:47:44;13.13;;;8.32;;
43771;SDS011;59066;54.782;32.024;2023-05-18T05:50:13;9.52;;;7.82;;
43771;SDS011;59066;54.782;32.024;2023-05-18T05:52:43;11.20;;;7.70;;
43771;SDS011;59066;54.782;32.024;2023-05-18T05:55:11;13.77;;;8.05;;
43771;SDS011;59066;54.782;32.024;2023-05-18T05:57:38;10.50;;;7.72;;
43771;SDS011;59066;54.782;32.024;2023-05-18T06:00:09;9.02;;;6.63;;
43771;SDS011;59066;54.782;32.024;2023-05-18T06:02:51;11.60;;;8.88;;
43771;SDS011;59066;54.782;32.024;2023-05-18T06:05:26;9.60;;;7.03;;
43771;SDS011;59066;54.782;32.024;2023-05-18T06:07:55;13.02;;;7.97;;
43771;SDS011;59066;54.782;32.024;2023-05-18T06:10:22;18.38;;;10.80;;
43771;SDS011;59066;54.782;32.024;2023-05-18T06:12:50;15.32;;;8.43;;
43771;SDS011;59066;54.782;32.024;2023-05-18T06:15:21;10.15;;;6.82;;
43771;SDS011;59066;54.782;32.024;2023-05-18T06:17:49;12.65;;;6.78;;
43771;SDS011;59066;54.782;32.024;2023-05-18T06:20:17;11.70;;;6.20;;
43771;SDS011;59066;54.782;32.024;2023-05-18T06:22:45;8.82;;;6.10;;
43771;SDS011;59066;54.782;32.024;2023-05-18T06:25:30;8.02;;;5.63;;
43771;SDS011;59066;54.782;32.024;2023-05-18T06:28:08;14.88;;;7.38;;
43771;SDS011;59066;54.782;32.024;2023-05-18T06:30:54;19.35;;;8.07;;
43771;SDS011;59066;54.782;32.024;2023-05-18T06:33:33;8.55;;;6.35;;
43771;SDS011;59066;54.782;32.024;2023-05-18T06:36:02;17.73;;;8.27;;
43771;SDS011;59066;54.782;32.024;2023-05-18T06:38:30;16.70;;;8.85;;
43771;SDS011;59066;54.782;32.024;2023-05-18T06:40:57;12.55;;;7.05;;
43771;SDS011;59066;54.782;32.024;2023-05-18T06:43:25;16.10;;;7.03;;
43771;SDS011;59066;54.782;32.024;2023-05-18T06:46:01;13.93;;;6.97;;
43771;SDS011;59066;54.782;32.024;2023-05-18T06:48:34;9.93;;;6.32;;
43771;SDS011;59066;54.782;32.024;2023-05-18T06:51:03;14.85;;;7.28;;
43771;SDS011;59066;54.782;32.024;2023-05-18T06:53:30;20.85;;;9.05;;
43771;SDS011;59066;54.782;32.024;2023-05-18T06:55:58;17.52;;;6.75;;
43771;SDS011;59066;54.782;32.024;2023-05-18T06:58:26;15.20;;;6.97;;
43771;SDS011;59066;54.782;32.024;2023-05-18T07:00:55;15.63;;;6.45;;
43771;SDS011;59066;54.782;32.024;2023-05-18T07:03:23;13.40;;;6.05;;
43771;SDS011;59066;54.782;32.024;2023-05-18T07:05:51;10.48;;;6.53;;
43771;SDS011;59066;54.782;32.024;2023-05-18T07:08:19;15.07;;;11.35;;
43771;SDS011;59066;54.782;32.024;2023-05-18T07:10:46;8.95;;;6.43;;
43771;SDS011;59066;54.782;32.024;2023-05-18T07:13:14;9.27;;;5.60;;
43771;SDS011;59066;54.782;32.024;2023-05-18T07:15:41;11.70;;;6.85;;
43771;SDS011;59066;54.782;32.024;2023-05-18T07:18:09;11.95;;;6.90;;
43771;SDS011;59066;54.782;32.024;2023-05-18T07:20:37;22.00;;;7.80;;
43771;SDS011;59066;54.782;32.024;2023-05-18T07:23:05;12.65;;;6.63;;
43771;SDS011;59066;54.782;32.024;2023-05-18T07:25:32;15.25;;;6.05;;
43771;SDS011;59066;54.782;32.024;2023-05-18T07:28:00;10.80;;;5.22;;
43771;SDS011;59066;54.782;32.024;2023-05-18T07:30:28;12.77;;;6.90;;
43771;SDS011;59066;54.782;32.024;2023-05-18T07:32:55;12.27;;;6.75;;
43771;SDS011;59066;54.782;32.024;2023-05-18T07:35:25;23.98;;;7.45;;
43771;SDS011;59066;54.782;32.024;2023-05-18T07:37:53;14.73;;;8.93;;
43771;SDS011;59066;54.782;32.024;2023-05-18T07:40:21;15.65;;;8.02;;
43771;SDS011;59066;54.782;32.024;2023-05-18T07:42:49;11.25;;;6.05;;
43771;SDS011;59066;54.782;32.024;2023-05-18T07:45:16;11.55;;;6.18;;
43771;SDS011;59066;54.782;32.024;2023-05-18T07:47:44;13.13;;;5.15;;
43771;SDS011;59066;54.782;32.024;2023-05-18T07:50:11;7.95;;;6.13;;
43771;SDS011;59066;54.782;32.024;2023-05-18T07:52:39;14.10;;;6.80;;
43771;SDS011;59066;54.782;32.024;2023-05-18T07:55:07;11.75;;;7.45;;
43771;SDS011;59066;54.782;32.024;2023-05-18T07:57:35;11.43;;;5.95;;
43771;SDS011;59066;54.782;32.024;2023-05-18T08:00:02;10.43;;;6.72;;
43771;SDS011;59066;54.782;32.024;2023-05-18T08:02:38;16.13;;;6.72;;
43771;SDS011;59066;54.782;32.024;2023-05-18T08:05:06;11.60;;;6.47;;
43771;SDS011;59066;54.782;32.024;2023-05-18T08:07:34;8.45;;;5.88;;
43771;SDS011;59066;54.782;32.024;2023-05-18T08:10:02;10.95;;;7.40;;
43771;SDS011;59066;54.782;32.024;2023-05-18T08:12:30;8.52;;;6.03;;
43771;SDS011;59066;54.782;32.024;2023-05-18T08:14:58;10.75;;;7.07;;
43771;SDS011;59066;54.782;32.024;2023-05-18T08:17:25;9.38;;;7.38;;
43771;SDS011;59066;54.782;32.024;2023-05-18T08:19:53;14.13;;;7.43;;
43771;SDS011;59066;54.782;32.024;2023-05-18T08:22:21;12.98;;;7.03;;
43771;SDS011;59066;54.782;32.024;2023-05-18T08:24:49;13.15;;;8.38;;
43771;SDS011;59066;54.782;32.024;2023-05-18T08:27:16;9.82;;;6.78;;
43771;SDS011;59066;54.782;32.024;2023-05-18T08:29:46;11.38;;;7.07;;
43771;SDS011;59066;54.782;32.024;2023-05-18T08:32:13;9.43;;;5.90;;
43771;SDS011;59066;54.782;32.024;2023-05-18T08:34:41;11.85;;;7.40;;
43771;SDS011;59066;54.782;32.024;2023-05-18T08:37:09;11.70;;;8.95;;
43771;SDS011;59066;54.782;32.024;2023-05-18T08:39:37;12.18;;;7.00;;
43771;SDS011;59066;54.782;32.024;2023-05-18T08:42:14;9.32;;;6.80;;
43771;SDS011;59066;54.782;32.024;2023-05-18T08:44:54;13.27;;;7.50;;
43771;SDS011;59066;54.782;32.024;2023-05-18T08:47:29;10.55;;;6.53;;
43771;SDS011;59066;54.782;32.024;2023-05-18T08:49:58;12.73;;;8.05;;
43771;SDS011;59066;54.782;32.024;2023-05-18T08:52:29;15.18;;;9.65;;
43771;SDS011;59066;54.782;32.024;2023-05-18T08:55:04;13.13;;;8.07;;
43771;SDS011;59066;54.782;32.024;2023-05-18T08:57:35;12.57;;;7.28;;
43771;SDS011;59066;54.782;32.024;2023-05-18T09:00:05;12.82;;;6.57;;
43771;SDS011;59066;54.782;32.024;2023-05-18T09:02:35;13.05;;;6.82;;
43771;SDS011;59066;54.782;32.024;2023-05-18T09:05:05;10.90;;;7.72;;
43771;SDS011;59066;54.782;32.024;2023-05-18T09:07:34;14.90;;;7.95;;
43771;SDS011;59066;54.782;32.024;2023-05-18T09:10:03;12.18;;;7.45;;
43771;SDS011;59066;54.782;32.024;2023-05-18T09:12:31;11.05;;;7.07;;
43771;SDS011;59066;54.782;32.024;2023-05-18T09:15:00;9.48;;;7.75;;
43771;SDS011;59066;54.782;32.024;2023-05-18T09:17:30;10.27;;;6.95;;
43771;SDS011;59066;54.782;32.024;2023-05-18T09:19:58;8.43;;;6.80;;
43771;SDS011;59066;54.782;32.024;2023-05-18T09:22:25;7.28;;;6.00;;
43771;SDS011;59066;54.782;32.024;2023-05-18T09:24:53;19.88;;;9.80;;
43771;SDS011;59066;54.782;32.024;2023-05-18T09:27:21;10.82;;;6.60;;
43771;SDS011;59066;54.782;32.024;2023-05-18T09:29:50;11.10;;;6.47;;
43771;SDS011;59066;54.782;32.024;2023-05-18T09:32:20;14.93;;;7.75;;
43771;SDS011;59066;54.782;32.024;2023-05-18T09:34:48;8.48;;;6.60;;
43771;SDS011;59066;54.782;32.024;2023-05-18T09:37:16;29.65;;;13.80;;
43771;SDS011;59066;54.782;32.024;2023-05-18T09:39:45;23.38;;;14.02;;
43771;SDS011;59066;54.782;32.024;2023-05-18T09:42:33;10.10;;;7.47;;
43771;SDS011;59066;54.782;32.024;2023-05-18T09:45:14;11.23;;;8.77;;
43771;SDS011;59066;54.782;32.024;2023-05-18T09:47:52;8.65;;;7.70;;
43771;SDS011;59066;54.782;32.024;2023-05-18T09:50:21;18.02;;;9.90;;
43771;SDS011;59066;54.782;32.024;2023-05-18T09:52:50;17.77;;;9.43;;
43771;SDS011;59066;54.782;32.024;2023-05-18T09:55:18;13.73;;;9.45;;
43771;SDS011;59066;54.782;32.024;2023-05-18T09:57:47;19.30;;;14.60;;
43771;SDS011;59066;54.782;32.024;2023-05-18T10:00:17;9.43;;;7.03;;
43771;SDS011;59066;54.782;32.024;2023-05-18T10:02:48;13.45;;;8.48;;
43771;SDS011;59066;54.782;32.024;2023-05-18T10:05:19;11.45;;;9.13;;
43771;SDS011;59066;54.782;32.024;2023-05-18T10:07:49;13.57;;;9.30;;
43771;SDS011;59066;54.782;32.024;2023-05-18T10:10:18;11.05;;;8.07;;
43771;SDS011;59066;54.782;32.024;2023-05-18T10:12:48;11.38;;;7.05;;
43771;SDS011;59066;54.782;32.024;2023-05-18T10:15:17;13.52;;;6.88;;
43771;SDS011;59066;54.782;32.024;2023-05-18T10:17:47;9.30;;;7.32;;
43771;SDS011;59066;54.782;32.024;2023-05-18T10:20:17;10.38;;;6.28;;
43771;SDS011;59066;54.782;32.024;2023-05-18T10:22:47;7.63;;;6.65;;
43771;SDS011;59066;54.782;32.024;2023-05-18T10:25:18;11.77;;;7.53;;
43771;SDS011;59066;54.782;32.024;2023-05-18T10:27:48;14.43;;;8.45;;
43771;SDS011;59066;54.782;32.024;2023-05-18T10:30:16;9.52;;;7.25;;
43771;SDS011;59066;54.782;32.024;2023-05-18T10:32:44;11.93;;;8.45;;
43771;SDS011;59066;54.782;32.024;2023-05-18T10:35:12;11.32;;;7.30;;
43771;SDS011;59066;54.782;32.024;2023-05-18T10:37:43;12.48;;;9.07;;
43771;SDS011;59066;54.782;32.024;2023-05-18T10:40:16;7.97;;;7.18;;
43771;SDS011;59066;54.782;32.024;2023-05-18T10:42:44;10.32;;;7.47;;
43771;SDS011;59066;54.782;32.024;2023-05-18T10:45:13;8.90;;;7.93;;
43771;SDS011;59066;54.782;32.024;2023-05-18T10:47:42;10.65;;;7.88;;
43771;SDS011;59066;54.782;32.024;2023-05-18T10:50:10;10.70;;;8.00;;
43771;SDS011;59066;54.782;32.024;2023-05-18T10:52:38;10.32;;;7.93;;
43771;SDS011;59066;54.782;32.024;2023-05-18T10:55:07;11.82;;;7.75;;
43771;SDS011;59066;54.782;32.024;2023-05-18T10:57:39;9.38;;;7.82;;
43771;SDS011;59066;54.782;32.024;2023-05-18T11:00:12;11.40;;;8.25;;
43771;SDS011;59066;54.782;32.024;2023-05-18T11:02:40;11.20;;;8.23;;
43771;SDS011;59066;54.782;32.024;2023-05-18T11:05:09;10.60;;;7.35;;
43771;SDS011;59066;54.782;32.024;2023-05-18T11:07:38;9.98;;;7.60;;
43771;SDS011;59066;54.782;32.024;2023-05-18T11:10:08;8.55;;;7.53;;
43771;SDS011;59066;54.782;32.024;2023-05-18T11:12:37;9.55;;;8.30;;
43771;SDS011;59066;54.782;32.024;2023-05-18T11:15:06;8.68;;;7.15;;
43771;SDS011;59066;54.782;32.024;2023-05-18T11:17:34;10.80;;;7.72;;
43771;SDS011;59066;54.782;32.024;2023-05-18T11:27:54;11.25;;;8.02;;
43771;SDS011;59066;54.782;32.024;2023-05-18T11:30:28;10.48;;;7.82;;
43771;SDS011;59066;54.782;32.024;2023-05-18T11:33:26;10.32;;;6.10;;
43771;SDS011;59066;54.782;32.024;2023-05-18T11:44:24;16.35;;;10.70;;
43771;SDS011;59066;54.782;32.024;2023-05-18T11:49:23;16.40;;;12.02;;
43771;SDS011;59066;54.782;32.024;2023-05-18T11:54:24;10.55;;;9.00;;
43771;SDS011;59066;54.782;32.024;2023-05-18T11:56:52;17.10;;;11.75;;
43771;SDS011;59066;54.782;32.024;2023-05-18T11:59:35;12.95;;;11.20;;
43771;SDS011;59066;54.782;32.024;2023-05-18T12:02:04;12.50;;;11.10;;
43771;SDS011;59066;54.782;32.024;2023-05-18T12:04:32;12.57;;;8.98;;
43771;SDS011;59066;54.782;32.024;2023-05-18T12:07:03;9.57;;;8.38;;
43771;SDS011;59066;54.782;32.024;2023-05-18T12:09:31;10.60;;;8.27;;
43771;SDS011;59066;54.782;32.024;2023-05-18T12:11:59;16.75;;;9.23;;
43771;SDS011;59066;54.782;32.024;2023-05-18T12:14:28;18.75;;;15.27;;
43771;SDS011;59066;54.782;32.024;2023-05-18T12:16:57;13.98;;;10.48;;
43771;SDS011;59066;54.782;32.024;2023-05-18T12:19:26;13.02;;;10.77;;
43771;SDS011;59066;54.782;32.024;2023-05-18T12:21:53;15.90;;;11.27;;
43771;SDS011;59066;54.782;32.024;2023-05-18T12:24:23;10.02;;;9.02;;
43771;SDS011;59066;54.782;32.024;2023-05-18T12:26:51;12.02;;;9.30;;
43771;SDS011;59066;54.782;32.024;2023-05-18T12:29:19;12.77;;;9.35;;
43771;SDS011;59066;54.782;32.024;2023-05-18T12:31:47;12.98;;;9.23;;
43771;SDS011;59066;54.782;32.024;2023-05-18T12:34:15;15.93;;;9.55;;
43771;SDS011;59066;54.782;32.024;2023-05-18T12:36:52;12.55;;;10.52;;
43771;SDS011;59066;54.782;32.024;2023-05-18T12:39:20;14.70;;;11.00;;
43771;SDS011;59066;54.782;32.024;2023-05-18T12:41:48;20.98;;;16.40;;
43771;SDS011;59066;54.782;32.024;2023-05-18T12:44:16;15.25;;;12.93;;
43771;SDS011;59066;54.782;32.024;2023-05-18T12:46:44;11.93;;;10.60;;
43771;SDS011;59066;54.782;32.024;2023-05-18T12:49:11;20.55;;;12.80;;
43771;SDS011;59066;54.782;32.024;2023-05-18T12:51:39;14.52;;;13.05;;
43771;SDS011;59066;54.782;32.024;2023-05-18T12:54:06;14.50;;;13.00;;
43771;SDS011;59066;54.782;32.024;2023-05-18T12:56:53;14.55;;;13.10;;
43771;SDS011;59066;54.782;32.024;2023-05-18T12:59:28;19.63;;;14.32;;
43771;SDS011;59066;54.782;32.024;2023-05-18T13:01:55;17.85;;;11.40;;
43771;SDS011;59066;54.782;32.024;2023-05-18T13:04:31;13.02;;;11.73;;
43771;SDS011;59066;54.782;32.024;2023-05-18T13:07:02;13.02;;;11.68;;
43771;SDS011;59066;54.782;32.024;2023-05-18T13:09:30;16.67;;;12.63;;
43771;SDS011;59066;54.782;32.024;2023-05-18T13:11:59;18.25;;;15.75;;
43771;SDS011;59066;54.782;32.024;2023-05-18T13:14:36;14.38;;;12.23;;
43771;SDS011;59066;54.782;32.024;2023-05-18T13:17:04;12.05;;;10.82;;
43771;SDS011;59066;54.782;32.024;2023-05-18T13:19:33;14.70;;;11.50;;
43771;SDS011;59066;54.782;32.024;2023-05-18T13:22:02;15.32;;;12.55;;
43771;SDS011;59066;54.782;32.024;2023-05-18T13:24:29;28.20;;;16.05;;
43771;SDS011;59066;54.782;32.024;2023-05-18T13:26:57;14.45;;;11.55;;
43771;SDS011;59066;54.782;32.024;2023-05-18T13:29:25;17.08;;;12.40;;
43771;SDS011;59066;54.782;32.024;2023-05-18T13:31:54;18.83;;;13.27;;
43771;SDS011;59066;54.782;32.024;2023-05-18T13:34:22;25.83;;;14.95;;
43771;SDS011;59066;54.782;32.024;2023-05-18T13:36:49;21.00;;;11.40;;
43771;SDS011;59066;54.782;32.024;2023-05-18T13:39:17;13.25;;;10.32;;
43771;SDS011;59066;54.782;32.024;2023-05-18T13:41:45;16.15;;;11.13;;
43771;SDS011;59066;54.782;32.024;2023-05-18T13:44:12;17.58;;;10.30;;
43771;SDS011;59066;54.782;32.024;2023-05-18T13:46:41;12.60;;;10.93;;
43771;SDS011;59066;54.782;32.024;2023-05-18T13:49:09;14.65;;;11.60;;
43771;SDS011;59066;54.782;32.024;2023-05-18T13:51:38;13.48;;;10.65;;
43771;SDS011;59066;54.782;32.024;2023-05-18T13:54:06;15.52;;;11.80;;
43771;SDS011;59066;54.782;32.024;2023-05-18T13:56:34;16.77;;;13.65;;
43771;SDS011;59066;54.782;32.024;2023-05-18T13:59:01;14.57;;;13.07;;
43771;SDS011;59066;54.782;32.024;2023-05-18T14:01:29;16.20;;;12.95;;
43771;SDS011;59066;54.782;32.024;2023-05-18T14:03:58;13.13;;;11.80;;
43771;SDS011;59066;54.782;32.024;2023-05-18T14:06:26;16.92;;;15.23;;
43771;SDS011;59066;54.782;32.024;2023-05-18T14:08:53;21.70;;;16.40;;
43771;SDS011;59066;54.782;32.024;2023-05-18T14:11:21;18.52;;;16.48;;
43771;SDS011;59066;54.782;32.024;2023-05-18T14:13:49;20.15;;;18.00;;
43771;SDS011;59066;54.782;32.024;2023-05-18T14:16:16;18.33;;;16.52;;
43771;SDS011;59066;54.782;32.024;2023-05-18T14:18:44;17.88;;;15.70;;
43771;SDS011;59066;54.782;32.024;2023-05-18T14:21:11;19.38;;;17.38;;
43771;SDS011;59066;54.782;32.024;2023-05-18T14:23:39;20.98;;;17.00;;
43771;SDS011;59066;54.782;32.024;2023-05-18T14:26:06;18.40;;;16.33;;
43771;SDS011;59066;54.782;32.024;2023-05-18T14:28:34;19.63;;;17.55;;
43771;SDS011;59066;54.782;32.024;2023-05-18T14:31:01;19.40;;;17.48;;
43771;SDS011;59066;54.782;32.024;2023-05-18T14:33:29;20.10;;;18.02;;
43771;SDS011;59066;54.782;32.024;2023-05-18T14:35:56;23.15;;;20.73;;
43771;SDS011;59066;54.782;32.024;2023-05-18T14:38:24;25.88;;;18.98;;
43771;SDS011;59066;54.782;32.024;2023-05-18T14:40:52;20.35;;;18.33;;
43771;SDS011;59066;54.782;32.024;2023-05-18T14:43:20;17.90;;;16.00;;
43771;SDS011;59066;54.782;32.024;2023-05-18T14:45:47;21.40;;;17.88;;
43771;SDS011;59066;54.782;32.024;2023-05-18T14:48:25;21.88;;;17.35;;
43771;SDS011;59066;54.782;32.024;2023-05-18T14:50:53;19.83;;;17.80;;
43771;SDS011;59066;54.782;32.024;2023-05-18T14:53:21;18.52;;;16.38;;
43771;SDS011;59066;54.782;32.024;2023-05-18T14:55:48;21.27;;;17.45;;
43771;SDS011;59066;54.782;32.024;2023-05-18T14:58:16;19.33;;;17.30;;
43771;SDS011;59066;54.782;32.024;2023-05-18T15:00:43;21.63;;;19.42;;
43771;SDS011;59066;54.782;32.024;2023-05-18T15:03:11;19.80;;;17.77;;
43771;SDS011;59066;54.782;32.024;2023-05-18T15:05:40;19.00;;;17.00;;
43771;SDS011;59066;54.782;32.024;2023-05-18T15:08:07;20.67;;;17.65;;